Estación Meteorológica Peña el Pijo (Robertgarden) [ 09/23/18 02:16:50 CEST ]

Fecha Hora Presion(HPa) Temp (°C) Humedad % Rocio (°C) Viento ( m/s) Direccion Lluvia 1Hora(mm) Lluvia 24H(mm) LLuvia Total(mm)
2018-Jul-26 01:01:45 1010.200 17.3 43 4.5         269.36
2018-Jul-26 02:01:42 1009.900 16.1 45 4.1         269.36
2018-Jul-26 03:01:31 1009.600 15.6 46 4.0         269.36
2018-Jul-26 04:01:31 1009.500 14.1 51 4.1         269.36
2018-Jul-26 05:01:30 1009.500 13.0 53 3.6         269.36
2018-Jul-26 06:01:39 1009.200 12.8 55 3.9         269.36
2018-Jul-26 07:01:32 1009.500 11.9 58 3.9         269.36
2018-Jul-26 08:01:49 1009.400 14.0 56 5.4         269.36
2018-Jul-26 09:01:52 1009.400 21.0 50 10.2         269.36
2018-Jul-26 10:01:58 1009.200 28.6 34 11.1         269.36
2018-Jul-26 11:01:53 1009.000 32.9 24 9.4         269.36
2018-Jul-26 12:01:51 1008.900 34.9 20 8.6         269.36
2018-Jul-26 13:01:45 1008.600 36.0 20 9.6         269.36
2018-Jul-26 14:01:53 1008.200 34.4 20 8.2         269.36
2018-Jul-26 15:01:50 1007.800 35.6 18 7.2         269.36
2018-Jul-26 16:01:56 1007.500 37.1 17 7.5         269.36
2018-Jul-26 17:01:41 1007.100 38.1 19 10.3         269.36
2018-Jul-26 18:01:47 1007.000 34.2 24 10.5 3.0 SW     269.36
2018-Jul-26 19:01:38 1007.300 31.3 27 9.9 1.0 SSW     269.36
2018-Jul-26 20:01:40 1008.000 30.0 33 11.9         269.36
2018-Jul-26 21:01:56 1008.400 27.7 39 12.5         269.36
2018-Jul-26 22:01:40 1009.100 24.8 43 11.3         269.36
2018-Jul-26 23:01:46 1009.800 21.1 47 9.3         269.36

Temperatura Máxima:38°    Temperatura Mínima:11°
Presión Máxima:1010.200 Hpa    Presión Mínima:1007.000 Hpa


Volver